createdAt,value
2017-06-15T00:00:41.655Z,62.9
2017-06-15T00:01:40.868Z,62.9
2017-06-15T00:02:40.588Z,63
2017-06-15T00:03:39.687Z,63.4
2017-06-15T00:04:38.910Z,63.1
2017-06-15T00:05:38.127Z,63.2
2017-06-15T00:07:36.616Z,63.6
2017-06-15T00:08:35.838Z,63.6
2017-06-15T00:09:34.959Z,63.9
2017-06-15T00:10:34.175Z,63.9
2017-06-15T00:11:33.776Z,63.8
2017-06-15T00:12:32.989Z,64
2017-06-15T00:13:32.216Z,64
2017-06-15T00:14:31.437Z,64.4
2017-06-15T00:15:30.656Z,64.5
2017-06-15T00:16:29.759Z,64.5
2017-06-15T00:17:28.984Z,64.6
2017-06-15T00:18:28.717Z,64.6
2017-06-15T00:19:27.933Z,64.9
2017-06-15T00:20:27.148Z,64.6
2017-06-15T00:21:26.373Z,64.6
2017-06-15T00:22:25.482Z,64.5
2017-06-15T00:23:24.465Z,64.5
2017-06-15T00:24:24.196Z,64.4
2017-06-15T00:26:22.309Z,64.8
2017-06-15T00:27:21.800Z,64.8
2017-06-15T00:28:20.900Z,64.8
2017-06-15T00:29:20.507Z,65.1
2017-06-15T00:30:19.734Z,65
2017-06-15T00:32:17.855Z,65.2
2017-06-15T00:33:17.080Z,65
2017-06-15T00:34:16.302Z,65
2017-06-15T00:35:15.595Z,65.1
2017-06-15T00:36:14.692Z,65.1
2017-06-15T00:37:14.065Z,65.4
2017-06-15T00:38:13.666Z,65.3
2017-06-15T00:39:12.649Z,65.3
2017-06-15T00:40:12.254Z,65.3
2017-06-15T00:41:11.479Z,65.4
2017-06-15T00:42:11.138Z,65.3
2017-06-15T00:43:09.920Z,65.6
2017-06-15T00:44:09.214Z,65.8
2017-06-15T00:45:08.434Z,65.6
2017-06-15T00:46:08.235Z,65.6
2017-06-15T00:47:06.958Z,65.5
2017-06-15T00:49:05.565Z,65.6
2017-06-15T00:50:04.792Z,65.5
2017-06-15T00:52:02.956Z,65.6
2017-06-15T00:53:02.180Z,65.5
2017-06-15T00:54:01.407Z,65.6
2017-06-15T00:55:01.015Z,65.7
2017-06-15T00:56:00.249Z,65.6
2017-06-15T00:56:59.471Z,65.9
2017-06-15T00:57:58.451Z,66.2
2017-06-15T00:58:57.673Z,66.3
2017-06-15T00:59:56.896Z,66.3
2017-06-15T01:00:56.006Z,66.3
2017-06-15T01:01:55.607Z,66.2
2017-06-15T01:02:54.828Z,66
2017-06-15T01:03:54.048Z,66
2017-06-15T01:04:53.150Z,66
2017-06-15T01:05:52.372Z,66.4
2017-06-15T01:06:52.170Z,66.3
2017-06-15T01:07:50.896Z,66.2
2017-06-15T01:08:50.119Z,66.2
2017-06-15T01:09:49.730Z,66.2
2017-06-15T01:10:49.025Z,66.4
2017-06-15T01:11:48.249Z,66.5
2017-06-15T01:12:47.472Z,66.5
2017-06-15T01:13:46.582Z,66.5
2017-06-15T01:14:45.802Z,66.5
2017-06-15T01:15:45.023Z,66.3
2017-06-15T01:16:44.243Z,66.3
2017-06-15T01:17:43.469Z,66.2
2017-06-15T01:18:42.577Z,66.1
2017-06-15T01:19:41.562Z,66.5
2017-06-15T01:20:40.932Z,66.7
2017-06-15T01:21:40.427Z,66.5
2017-06-15T01:22:39.652Z,66.4
2017-06-15T01:23:38.873Z,66.2
2017-06-15T01:24:38.088Z,66.2
2017-06-15T01:25:37.889Z,66.2
2017-06-15T01:26:36.490Z,66.2
2017-06-15T01:27:35.707Z,66.1
2017-06-15T01:28:34.932Z,66.1
2017-06-15T01:29:34.156Z,66.1
2017-06-15T01:30:33.760Z,66.7
2017-06-15T01:31:32.864Z,66.5
2017-06-15T01:32:31.864Z,67.1
2017-06-15T01:33:31.584Z,67
2017-06-15T01:34:30.756Z,67.1
2017-06-15T01:35:30.068Z,67.1
2017-06-15T01:36:29.301Z,67
2017-06-15T01:37:28.542Z,66.8
2017-06-15T01:38:27.645Z,66.8
2017-06-15T01:39:26.939Z,66.8
2017-06-15T01:40:26.154Z,66.7
2017-06-15T01:41:25.256Z,66.8
2017-06-15T01:42:24.472Z,66.9
2017-06-15T01:43:23.693Z,66.9
2017-06-15T01:44:23.494Z,66.9
2017-06-15T01:45:22.214Z,66.8
2017-06-15T01:46:21.431Z,66.8
2017-06-15T01:47:20.659Z,66.6
2017-06-15T01:48:19.762Z,66.5
2017-06-15T01:49:18.987Z,66.8
2017-06-15T01:50:18.095Z,66.6
2017-06-15T01:51:17.817Z,66.6
2017-06-15T01:52:17.040Z,66.6
2017-06-15T01:52:47.512Z,66.6
2017-06-15T01:54:15.416Z,66.5
2017-06-15T01:55:14.398Z,66.6
2017-06-15T01:56:14.068Z,66.6
2017-06-15T01:57:13.204Z,66.6
2017-06-15T01:58:12.434Z,66.7
2017-06-15T01:59:11.552Z,66.6
2017-06-15T02:00:11.357Z,66.7
2017-06-15T02:02:09.458Z,66.8
2017-06-15T02:03:08.686Z,66.8
2017-06-15T02:04:07.911Z,67
2017-06-15T02:05:07.133Z,67.1
2017-06-15T02:06:06.241Z,67.1
2017-06-15T02:07:05.465Z,67.2
2017-06-15T02:08:04.757Z,67.1
2017-06-15T02:09:03.865Z,67.1
2017-06-15T02:10:03.473Z,67.3
2017-06-15T02:11:02.699Z,67.4
2017-06-15T02:12:01.501Z,67.7
2017-06-15T02:13:00.738Z,67.8
2017-06-15T02:14:00.537Z,68
2017-06-15T02:14:31.127Z,68
2017-06-15T02:15:01.157Z,68.1
2017-06-15T02:15:58.867Z,68
2017-06-15T02:16:58.083Z,68.2
2017-06-15T02:17:57.057Z,68.2
2017-06-15T02:18:56.541Z,68.2
2017-06-15T02:19:55.761Z,68.2
2017-06-15T02:20:55.057Z,68.3
2017-06-15T02:21:54.280Z,68.5
2017-06-15T02:22:53.499Z,68.6
2017-06-15T02:23:52.719Z,68.9
2017-06-15T02:24:51.937Z,68.8
2017-06-15T02:26:50.041Z,68.7
2017-06-15T02:27:49.261Z,68.8
2017-06-15T02:28:48.559Z,68.6
2017-06-15T02:29:48.353Z,68.6
2017-06-15T02:30:47.383Z,68.7
2017-06-15T02:31:46.496Z,68.7
2017-06-15T02:32:45.778Z,68.6
2017-06-15T02:34:43.880Z,69.1
2017-06-15T02:35:43.105Z,69.2
2017-06-15T02:36:42.326Z,69.2
2017-06-15T02:37:41.563Z,69.2
2017-06-15T02:38:40.785Z,69.4
2017-06-15T02:39:40.082Z,69.4
2017-06-15T02:40:39.181Z,69.4
2017-06-15T02:41:38.674Z,69.4
2017-06-15T02:42:37.899Z,69.5
2017-06-15T02:43:37.275Z,69.4
2017-06-15T02:44:36.961Z,69.3
2017-06-15T02:45:35.677Z,69.5
2017-06-15T02:46:34.910Z,69.8
2017-06-15T02:47:34.140Z,70
2017-06-15T02:48:33.445Z,69.9
2017-06-15T02:49:32.674Z,69.8
2017-06-15T02:50:31.908Z,69.9
2017-06-15T02:51:31.140Z,69.9
2017-06-15T02:52:30.249Z,70.3
2017-06-15T02:53:29.359Z,70.5
2017-06-15T02:54:28.589Z,70.5
2017-06-15T02:55:28.399Z,70.6
2017-06-15T02:56:27.128Z,70.5
2017-06-15T02:58:25.754Z,70.5
2017-06-15T02:59:24.991Z,70.7
2017-06-15T03:00:24.221Z,70.7
2017-06-15T03:01:23.532Z,70.7
2017-06-15T03:02:22.754Z,70.7
2017-06-15T03:03:21.860Z,70.7
2017-06-15T03:04:21.676Z,70.9
2017-06-15T03:05:21.029Z,71.1
2017-06-15T03:06:19.255Z,71.1
2017-06-15T03:07:18.491Z,71.3
2017-06-15T03:08:17.720Z,71.3
2017-06-15T03:09:16.944Z,71.4
2017-06-15T03:10:16.185Z,71.4
2017-06-15T03:11:15.411Z,71.4
2017-06-15T03:12:15.031Z,71.4
2017-06-15T03:13:14.144Z,71.4
2017-06-15T03:14:13.379Z,71.3
2017-06-15T03:15:12.488Z,71.3
2017-06-15T03:16:11.726Z,71.5
2017-06-15T03:17:10.960Z,71.6
2017-06-15T03:18:10.185Z,71.8
2017-06-15T03:19:09.176Z,71.8
2017-06-15T03:20:08.786Z,71.7
2017-06-15T03:21:07.894Z,71.5
2017-06-15T03:22:07.122Z,71.5
2017-06-15T03:23:06.355Z,72
2017-06-15T03:24:05.474Z,71.6
2017-06-15T03:25:04.708Z,71.4
2017-06-15T03:26:03.944Z,71.2
2017-06-15T03:27:03.172Z,71.1
2017-06-15T03:29:01.552Z,71.1
2017-06-15T03:30:00.782Z,71.1
2017-06-15T03:31:00.011Z,70.9
2017-06-15T03:31:59.122Z,70.8
2017-06-15T03:32:58.346Z,70.7
2017-06-15T03:33:57.581Z,70.7
2017-06-15T03:34:56.812Z,70.7
2017-06-15T03:35:56.045Z,70.7
2017-06-15T03:36:55.187Z,70.7
2017-06-15T03:37:54.924Z,70.3
2017-06-15T03:38:54.036Z,69.9
2017-06-15T03:39:53.148Z,69.9
2017-06-15T03:40:52.372Z,69.8
2017-06-15T03:41:51.678Z,69.6
2017-06-15T03:42:50.907Z,69.6
2017-06-15T03:43:50.140Z,69.5
2017-06-15T03:44:49.373Z,69.3
2017-06-15T03:45:48.608Z,69.1
2017-06-15T03:46:47.840Z,69.1
2017-06-15T03:47:46.946Z,69.1
2017-06-15T03:48:46.130Z,68.9
2017-06-15T03:49:45.365Z,68.5
2017-06-15T03:50:44.359Z,68.3
2017-06-15T03:52:42.858Z,67.9
2017-06-15T03:53:42.084Z,67.7
2017-06-15T03:54:41.315Z,67.7
2017-06-15T03:55:40.543Z,67.5
2017-06-15T03:56:39.729Z,67.2
2017-06-15T03:57:38.959Z,66.8
2017-06-15T03:58:38.196Z,66.4
2017-06-15T03:59:37.427Z,66.3
2017-06-15T04:00:36.657Z,66
2017-06-15T04:01:35.773Z,66.1
2017-06-15T04:02:35.278Z,65.4
2017-06-15T04:03:34.663Z,65.5
2017-06-15T04:04:33.894Z,65.5
2017-06-15T04:05:33.009Z,65.8
2017-06-15T04:06:32.239Z,65.8
2017-06-15T04:07:31.471Z,65.8
2017-06-15T04:08:30.698Z,65.6
2017-06-15T04:09:29.929Z,65.5
2017-06-15T04:10:29.122Z,65.4
2017-06-15T04:11:28.363Z,65.7
2017-06-15T04:12:27.587Z,65.7
2017-06-15T04:13:26.812Z,65.5
2017-06-15T04:14:26.036Z,65.5
2017-06-15T04:15:25.839Z,66
2017-06-15T04:16:25.066Z,66.4
2017-06-15T04:17:23.787Z,66.4
2017-06-15T04:18:23.021Z,66.2
2017-06-15T04:19:22.252Z,66
2017-06-15T04:20:22.058Z,66
2017-06-15T04:21:20.783Z,66
2017-06-15T04:23:18.892Z,65
2017-06-15T04:24:18.031Z,64.7
2017-06-15T04:25:17.257Z,64.7
2017-06-15T04:26:16.370Z,64.7
2017-06-15T04:27:16.101Z,64.4
2017-06-15T04:28:15.335Z,64
2017-06-15T04:29:14.446Z,63.7
2017-06-15T04:30:13.678Z,63.3
2017-06-15T04:32:11.800Z,63
2017-06-15T04:33:11.028Z,62.7
2017-06-15T04:34:10.264Z,62.6
2017-06-15T04:35:09.498Z,62.3
2017-06-15T04:36:08.616Z,61.8
2017-06-15T04:37:08.114Z,61.5
2017-06-15T04:38:07.228Z,61.2
2017-06-15T04:39:06.450Z,61.2
2017-06-15T04:40:05.572Z,61.2
2017-06-15T04:41:05.304Z,61.2
2017-06-15T04:42:04.038Z,61.1
2017-06-15T04:43:03.273Z,60.7
2017-06-15T04:44:02.510Z,60.7
2017-06-15T04:45:01.739Z,60.7
2017-06-15T04:46:01.351Z,60.9
2017-06-15T04:47:00.574Z,61
2017-06-15T04:47:59.805Z,61.2
2017-06-15T04:48:59.031Z,61.2
2017-06-15T04:49:58.262Z,60.8
2017-06-15T04:50:28.810Z,60.8
2017-06-15T04:50:59.233Z,60.8
2017-06-15T04:51:56.450Z,60.4
2017-06-15T04:52:55.688Z,60.9
2017-06-15T04:54:54.950Z,60.6
2017-06-15T04:56:52.559Z,60.7
2017-06-15T04:57:51.790Z,60.7
2017-06-15T04:58:50.897Z,60.6
2017-06-15T05:00:49.516Z,60.5
2017-06-15T05:01:48.748Z,60.4
2017-06-15T05:02:47.742Z,60
2017-06-15T05:03:47.358Z,60
2017-06-15T05:04:46.594Z,59.8
2017-06-15T05:05:45.828Z,60
2017-06-15T05:06:45.059Z,60.4
2017-06-15T05:07:44.292Z,60.5
2017-06-15T05:08:44.096Z,60.5
2017-06-15T05:09:42.830Z,60.2
2017-06-15T05:10:42.062Z,60
2017-06-15T05:11:41.181Z,59.7
2017-06-15T05:12:40.365Z,59.7
2017-06-15T05:13:39.596Z,59.7
2017-06-15T05:14:38.832Z,59.7
2017-06-15T05:15:38.066Z,58.6
2017-06-15T05:16:37.323Z,58.3
2017-06-15T05:17:36.558Z,57.7
2017-06-15T05:18:35.790Z,57.7
2017-06-15T05:19:35.019Z,57.7
2017-06-15T05:20:34.254Z,58.1
2017-06-15T05:21:33.481Z,57.8
2017-06-15T05:22:32.709Z,58.3
2017-06-15T05:23:31.939Z,59
2017-06-15T05:25:30.556Z,59.2
2017-06-15T05:26:29.823Z,59
2017-06-15T05:27:29.051Z,57.8
2017-06-15T05:28:28.281Z,57.3
2017-06-15T05:29:27.513Z,56.3
2017-06-15T05:31:26.148Z,55
2017-06-15T05:32:24.916Z,55
2017-06-15T05:33:24.151Z,55.2
2017-06-15T05:34:23.571Z,55.1
2017-06-15T05:35:22.884Z,54.4
2017-06-15T05:36:22.117Z,53.6
2017-06-15T05:37:21.346Z,53.9
2017-06-15T05:38:20.580Z,54
2017-06-15T05:39:19.807Z,53.7
2017-06-15T05:40:18.922Z,53.9
2017-06-15T05:41:18.157Z,53.8
2017-06-15T05:43:16.313Z,54
2017-06-15T05:44:15.808Z,54.1
2017-06-15T05:45:15.306Z,54.1
2017-06-15T05:46:14.534Z,53.6
2017-06-15T05:47:13.766Z,54.2
2017-06-15T05:49:12.453Z,54.1
2017-06-15T05:50:11.572Z,53.5
2017-06-15T05:51:10.805Z,52.3
2017-06-15T05:52:10.039Z,51.9
2017-06-15T05:53:09.273Z,51.5
2017-06-15T05:54:08.504Z,51.5
2017-06-15T05:55:07.736Z,51.4
2017-06-15T05:56:06.850Z,51.4
2017-06-15T05:57:06.345Z,51.3
2017-06-15T05:58:05.580Z,52
2017-06-15T05:59:05.078Z,52.6
2017-06-15T06:00:04.340Z,52.8
2017-06-15T06:01:03.570Z,52.3
2017-06-15T06:03:01.693Z,52.1
2017-06-15T06:04:00.915Z,51.5
2017-06-15T06:05:00.528Z,51.5
2017-06-15T06:05:59.761Z,51.5
2017-06-15T06:06:58.994Z,51.3
2017-06-15T06:07:58.107Z,51
2017-06-15T06:08:57.807Z,50.2
2017-06-15T06:10:55.928Z,49.9
2017-06-15T06:11:55.153Z,49.6
2017-06-15T06:12:54.957Z,49.7
2017-06-15T06:13:53.579Z,49.2
2017-06-15T06:14:52.812Z,48.9
2017-06-15T06:15:51.812Z,49.3
2017-06-15T06:16:51.439Z,49.7
2017-06-15T06:17:50.672Z,49.7
2017-06-15T06:18:49.901Z,49.1
2017-06-15T06:19:49.520Z,48.2
2017-06-15T06:21:48.139Z,48.8
2017-06-15T06:22:46.943Z,48.8
2017-06-15T06:23:46.685Z,48.1
2017-06-15T06:25:44.805Z,49
2017-06-15T06:26:43.915Z,49.5
2017-06-15T06:27:43.643Z,49.8
2017-06-15T06:28:42.629Z,49.8
2017-06-15T06:29:41.856Z,50.1
2017-06-15T06:30:41.355Z,50.4
2017-06-15T06:31:40.585Z,50.4
2017-06-15T06:32:39.816Z,50.1
2017-06-15T06:33:39.050Z,50
2017-06-15T06:34:38.288Z,50
2017-06-15T06:35:37.516Z,49.7
2017-06-15T06:37:36.168Z,49.2
2017-06-15T06:39:34.676Z,48.5
2017-06-15T06:40:33.904Z,48.2
2017-06-15T06:41:33.653Z,48.5
2017-06-15T06:42:32.880Z,48.4
2017-06-15T06:43:31.867Z,48.5
2017-06-15T06:44:31.104Z,48.6
2017-06-15T06:45:30.215Z,48.4
2017-06-15T06:46:29.710Z,48.3
2017-06-15T06:47:29.220Z,48
2017-06-15T06:48:28.474Z,47.1
2017-06-15T06:49:27.585Z,46.3
2017-06-15T06:50:26.830Z,45.9
2017-06-15T06:51:26.074Z,46.9
2017-06-15T06:52:25.813Z,47.2
2017-06-15T06:53:25.061Z,47.1
2017-06-15T06:54:24.301Z,47
2017-06-15T06:55:23.539Z,46.6
2017-06-15T06:56:22.769Z,46.6
2017-06-15T06:57:22.000Z,46.6
2017-06-15T06:58:21.227Z,45.2
2017-06-15T06:59:20.458Z,45.9
2017-06-15T07:00:19.684Z,46.5
2017-06-15T07:01:19.415Z,46.4
2017-06-15T07:02:18.639Z,45.7
2017-06-15T07:03:17.916Z,45.9
2017-06-15T07:04:17.725Z,46.5
2017-06-15T07:06:15.732Z,46.1
2017-06-15T07:07:14.840Z,45.2
2017-06-15T07:08:14.062Z,45.4
2017-06-15T07:09:13.683Z,44.9
2017-06-15T07:10:12.797Z,45.4
2017-06-15T07:11:12.035Z,45.2
2017-06-15T07:12:11.260Z,44.7
2017-06-15T07:13:10.996Z,45.1
2017-06-15T07:14:10.227Z,45.1
2017-06-15T07:15:09.226Z,44.9
2017-06-15T07:16:08.964Z,44.9
2017-06-15T07:17:08.189Z,44.9
2017-06-15T07:18:07.182Z,45.9
2017-06-15T07:19:06.180Z,45.9
2017-06-15T07:20:06.487Z,46.1
2017-06-15T07:21:05.098Z,45.2
2017-06-15T07:22:04.414Z,44.8
2017-06-15T07:23:03.659Z,44.8
2017-06-15T07:24:03.281Z,43.7
2017-06-15T07:25:02.256Z,43.5
2017-06-15T07:26:01.994Z,43.3
2017-06-15T07:27:01.232Z,43
2017-06-15T07:28:01.035Z,42.1
2017-06-15T07:28:59.764Z,41.6
2017-06-15T07:29:59.015Z,41.4
2017-06-15T07:30:58.010Z,41.4
2017-06-15T07:31:57.740Z,41.3
2017-06-15T07:32:56.852Z,41.6
2017-06-15T07:33:56.547Z,41.9
2017-06-15T07:35:55.162Z,41.2
2017-06-15T07:36:54.394Z,40.5
2017-06-15T07:37:53.510Z,40.1
2017-06-15T07:38:52.745Z,40.6
2017-06-15T07:39:52.379Z,41.5
2017-06-15T07:40:51.609Z,41
2017-06-15T07:41:50.849Z,41.9
2017-06-15T07:42:50.080Z,42.4
2017-06-15T07:43:49.314Z,43
2017-06-15T07:44:49.047Z,42.5
2017-06-15T07:45:48.159Z,42
2017-06-15T07:46:47.386Z,42.6
2017-06-15T07:47:46.614Z,42.6
2017-06-15T07:48:46.235Z,42.6
2017-06-15T07:49:45.463Z,42.2
2017-06-15T07:50:45.080Z,41.3
2017-06-15T07:51:44.308Z,41
2017-06-15T07:52:43.542Z,41.5
2017-06-15T07:53:42.654Z,41.1
2017-06-15T07:54:42.394Z,40.8
2017-06-15T07:55:41.634Z,40.8
2017-06-15T07:56:40.863Z,41.1
2017-06-15T07:57:11.282Z,41.1
2017-06-15T07:57:41.717Z,41
2017-06-15T07:58:12.161Z,41
2017-06-15T07:59:39.074Z,40.4
2017-06-15T08:00:38.301Z,40.7
2017-06-15T08:01:37.415Z,40.2
2017-06-15T08:02:36.643Z,40.3
2017-06-15T08:03:36.378Z,40
2017-06-15T08:04:35.613Z,39
2017-06-15T08:05:34.896Z,39
2017-06-15T08:06:34.199Z,39.4
2017-06-15T08:07:33.426Z,40.5
2017-06-15T08:08:32.661Z,40.1
2017-06-15T08:09:32.279Z,40.6
2017-06-15T08:10:31.508Z,40.5
2017-06-15T08:11:30.717Z,40.3
2017-06-15T08:12:30.215Z,39.7
2017-06-15T08:13:29.446Z,39.9
2017-06-15T08:14:29.059Z,39.7
2017-06-15T08:15:28.174Z,39.5
2017-06-15T08:16:27.404Z,39
2017-06-15T08:17:27.138Z,39
2017-06-15T08:18:26.367Z,39
2017-06-15T08:19:26.179Z,38.5
2017-06-15T08:20:24.846Z,37.6
2017-06-15T08:21:24.578Z,37.6
2017-06-15T08:22:23.810Z,37.6
2017-06-15T08:23:23.043Z,37.6
2017-06-15T08:24:22.349Z,37.6
2017-06-15T08:25:21.665Z,36.7
2017-06-15T08:26:21.164Z,37.7
2017-06-15T08:27:20.283Z,37.9
2017-06-15T08:28:19.910Z,38.4
2017-06-15T08:30:18.416Z,38.1
2017-06-15T08:31:17.687Z,38.7
2017-06-15T08:32:17.433Z,38.7
2017-06-15T08:33:16.682Z,39
2017-06-15T08:34:15.914Z,38
2017-06-15T08:35:15.528Z,38.4
2017-06-15T08:36:14.755Z,38.1
2017-06-15T08:37:14.251Z,38.4
2017-06-15T08:38:13.486Z,38
2017-06-15T08:38:44.027Z,38
2017-06-15T08:40:11.825Z,37.2
2017-06-15T08:41:11.448Z,36.5
2017-06-15T08:42:10.687Z,36.6
2017-06-15T08:43:10.304Z,35.8
2017-06-15T08:44:09.424Z,35.7
2017-06-15T08:45:08.930Z,35.8
2017-06-15T08:46:08.543Z,35.9
2017-06-15T08:47:07.779Z,36.3
2017-06-15T08:48:06.895Z,35.3
2017-06-15T08:49:06.625Z,35.2
2017-06-15T08:50:05.739Z,33.9
2017-06-15T08:51:05.241Z,34.6
2017-06-15T08:52:04.474Z,34.2
2017-06-15T08:53:03.706Z,35.1
2017-06-15T08:54:03.456Z,35.5
2017-06-15T08:55:02.570Z,35
2017-06-15T08:56:01.801Z,33.4
2017-06-15T08:57:01.421Z,33.4
2017-06-15T08:58:00.649Z,34
2017-06-15T08:58:59.881Z,35
2017-06-15T08:59:59.619Z,32.8
2017-06-15T09:00:58.860Z,32.2
2017-06-15T09:01:57.737Z,31.9
2017-06-15T09:02:57.779Z,31.5
2017-06-15T09:03:57.002Z,30.2
2017-06-15T09:04:56.308Z,31.1
2017-06-15T09:05:56.130Z,31.6
2017-06-15T09:06:55.358Z,31.8
2017-06-15T09:07:54.591Z,31.7
2017-06-15T09:08:53.829Z,31.3
2017-06-15T09:09:53.066Z,31.4
2017-06-15T09:10:52.796Z,31.5
2017-06-15T09:11:51.906Z,31.6
2017-06-15T09:12:51.404Z,31.8
2017-06-15T09:13:51.497Z,31.8
2017-06-15T09:14:50.225Z,31.8
2017-06-15T09:15:49.842Z,32.4
2017-06-15T09:16:49.076Z,31.3
2017-06-15T09:17:48.303Z,30.9
2017-06-15T09:18:47.921Z,30
2017-06-15T09:19:47.150Z,30
2017-06-15T09:20:46.388Z,32.1
2017-06-15T09:21:46.695Z,32.2
2017-06-15T09:22:45.422Z,31.8
2017-06-15T09:23:44.534Z,31.1
2017-06-15T09:24:44.274Z,29.8
2017-06-15T09:25:43.501Z,30.7
2017-06-15T09:26:42.614Z,30.8
2017-06-15T09:27:42.229Z,30.8
2017-06-15T09:28:41.966Z,30.9
2017-06-15T09:29:41.204Z,31.1
2017-06-15T09:30:40.202Z,31.1
2017-06-15T09:31:39.932Z,31.1
2017-06-15T09:32:39.742Z,30.3
2017-06-15T09:33:38.472Z,30.4
2017-06-15T09:34:38.209Z,30.4
2017-06-15T09:35:38.018Z,31.2
2017-06-15T09:36:36.749Z,32
2017-06-15T09:37:36.490Z,32.7
2017-06-15T09:38:35.725Z,32
2017-06-15T09:40:34.347Z,33.5
2017-06-15T09:41:34.093Z,33.6
2017-06-15T09:42:33.329Z,33.5
2017-06-15T09:43:32.953Z,33.8
2017-06-15T09:44:32.186Z,34.4
2017-06-15T09:45:31.300Z,33.7
2017-06-15T09:46:30.818Z,33.5
2017-06-15T09:47:01.365Z,33.5
2017-06-15T09:47:31.914Z,34.2
2017-06-15T09:48:02.461Z,34.2
2017-06-15T09:49:29.377Z,34.3
2017-06-15T09:50:28.493Z,34.6
2017-06-15T09:51:28.235Z,33.7
2017-06-15T09:52:27.465Z,33.7
2017-06-15T09:53:26.713Z,33.9
2017-06-15T09:54:26.448Z,33.7
2017-06-15T09:55:25.680Z,33
2017-06-15T09:56:24.987Z,32.9
2017-06-15T09:57:24.720Z,33.1
2017-06-15T09:58:23.718Z,32.7
2017-06-15T09:59:23.454Z,32.9
2017-06-15T10:00:22.573Z,32.3
2017-06-15T10:01:22.189Z,33.2
2017-06-15T10:02:21.420Z,32.7
2017-06-15T10:03:21.162Z,33
2017-06-15T10:04:20.396Z,32.4
2017-06-15T10:05:20.136Z,32.4
2017-06-15T10:06:19.255Z,32.4
2017-06-15T10:07:18.913Z,33.1
2017-06-15T10:08:18.230Z,32.4
2017-06-15T10:09:17.468Z,32.9
2017-06-15T10:11:16.586Z,32.2
2017-06-15T10:12:15.820Z,32.1
2017-06-15T10:13:15.429Z,33.2
2017-06-15T10:14:14.432Z,33.1
2017-06-15T10:15:14.094Z,33.3
2017-06-15T10:16:13.834Z,34
2017-06-15T10:16:44.142Z,34
2017-06-15T10:17:14.577Z,34.3
2017-06-15T10:17:45.113Z,34.3
2017-06-15T10:18:15.658Z,34.6
2017-06-15T10:18:46.189Z,34.6
2017-06-15T10:20:11.587Z,33.3
2017-06-15T10:21:10.820Z,34
2017-06-15T10:22:10.049Z,33.9
2017-06-15T10:23:09.664Z,33.9
2017-06-15T10:24:09.288Z,33.9
2017-06-15T10:25:08.405Z,34.5
2017-06-15T10:26:08.147Z,34.2
2017-06-15T10:27:07.380Z,35.8
2017-06-15T10:28:07.001Z,35.9
2017-06-15T10:29:06.265Z,35.3
2017-06-15T10:30:05.715Z,35.5
2017-06-15T10:31:05.334Z,35.5
2017-06-15T10:32:04.564Z,34.6
2017-06-15T10:33:04.181Z,34.9
2017-06-15T10:34:03.421Z,35.1
2017-06-15T10:35:03.152Z,35.1
2017-06-15T10:36:02.775Z,36.1
2017-06-15T10:37:02.093Z,36.1
2017-06-15T10:38:01.333Z,35.9
2017-06-15T10:39:01.075Z,35.7
2017-06-15T10:40:00.305Z,34.7
2017-06-15T10:40:59.924Z,34.7
2017-06-15T10:41:59.996Z,34.7
2017-06-15T10:42:58.483Z,34.4
2017-06-15T10:43:58.214Z,34.4
2017-06-15T10:44:57.451Z,34.8
2017-06-15T10:45:57.186Z,35
2017-06-15T10:46:56.418Z,34.8
2017-06-15T10:47:56.153Z,35.3
2017-06-15T10:48:55.265Z,35.5
2017-06-15T10:49:54.885Z,35.9
2017-06-15T10:51:54.002Z,34.8
2017-06-15T10:52:54.080Z,35.4
2017-06-15T10:53:52.685Z,35.6
2017-06-15T10:55:51.811Z,36
2017-06-15T10:56:51.423Z,35.9
2017-06-15T10:58:50.634Z,36.7
2017-06-15T10:59:49.748Z,36.2
2017-06-15T11:00:48.871Z,35.9
2017-06-15T11:01:48.615Z,34.8
2017-06-15T11:02:48.230Z,35.1
2017-06-15T11:03:47.459Z,35.4
2017-06-15T11:04:47.190Z,35.2
2017-06-15T11:05:46.810Z,35.5
2017-06-15T11:06:46.046Z,35.8
2017-06-15T11:07:45.783Z,35.5
2017-06-15T11:08:45.020Z,35.4
2017-06-15T11:09:44.522Z,35.4
2017-06-15T11:10:44.265Z,34.9
2017-06-15T11:11:43.581Z,35.7
2017-06-15T11:12:42.811Z,35.5
2017-06-15T11:13:42.543Z,35.2
2017-06-15T11:14:42.273Z,35.5
2017-06-15T11:15:41.497Z,35.5
2017-06-15T11:16:41.232Z,35.5
2017-06-15T11:17:40.468Z,36.3
2017-06-15T11:18:40.206Z,36.7
2017-06-15T11:20:38.706Z,36
2017-06-15T11:21:38.586Z,35.7
2017-06-15T11:22:37.896Z,35.8
2017-06-15T11:23:37.665Z,36
2017-06-15T11:24:36.900Z,36.2
2017-06-15T11:25:36.642Z,35.7
2017-06-15T11:26:35.752Z,34.8
2017-06-15T11:27:35.371Z,35.5
2017-06-15T11:29:34.494Z,35.8
2017-06-15T11:30:34.226Z,35
2017-06-15T11:31:33.455Z,35
2017-06-15T11:32:33.189Z,35
2017-06-15T11:34:32.080Z,35.2
2017-06-15T11:35:31.815Z,35.5
2017-06-15T11:36:31.046Z,35.5
2017-06-15T11:37:30.668Z,35.9
2017-06-15T11:38:30.286Z,35.5
2017-06-15T11:39:30.020Z,36.4
2017-06-15T11:40:29.261Z,35.9
2017-06-15T11:41:29.586Z,36.2
2017-06-15T11:42:28.313Z,34.6
2017-06-15T11:43:27.953Z,34.4
2017-06-15T11:44:27.565Z,34.5
2017-06-15T11:45:26.889Z,34.5
2017-06-15T11:46:26.506Z,33.9
2017-06-15T11:48:25.514Z,34.4
2017-06-15T11:49:25.252Z,34.2
2017-06-15T11:50:24.484Z,34.1
2017-06-15T11:51:24.101Z,34
2017-06-15T11:52:24.412Z,34
2017-06-15T11:53:23.066Z,34
2017-06-15T11:54:22.799Z,34.2
2017-06-15T11:55:22.415Z,34.3
2017-06-15T11:56:21.647Z,34.3
2017-06-15T11:57:21.385Z,34.3
2017-06-15T11:58:20.994Z,35
2017-06-15T11:59:20.729Z,35.2
2017-06-15T12:00:19.957Z,34.8
2017-06-15T12:01:19.701Z,34.5
2017-06-15T12:02:18.928Z,35.2
2017-06-15T12:04:18.633Z,33.9
2017-06-15T12:05:17.866Z,34.3
2017-06-15T12:06:17.613Z,33.7
2017-06-15T12:07:16.841Z,33.1
2017-06-15T12:08:16.579Z,34
2017-06-15T12:09:16.309Z,34.3
2017-06-15T12:10:15.550Z,34.3
2017-06-15T12:11:15.169Z,34.3
2017-06-15T12:12:14.788Z,33.9
2017-06-15T12:13:14.408Z,34.4
2017-06-15T12:14:14.041Z,34.8
2017-06-15T12:15:13.154Z,34.2
2017-06-15T12:16:12.783Z,33.6
2017-06-15T12:17:12.523Z,33.9
2017-06-15T12:18:12.256Z,34.6
2017-06-15T12:19:11.756Z,33.5
2017-06-15T12:20:11.491Z,33.4
2017-06-15T12:21:10.602Z,33.1
2017-06-15T12:22:10.227Z,33.8
2017-06-15T12:23:09.958Z,33.8
2017-06-15T12:24:09.600Z,34
2017-06-15T12:25:08.981Z,34
2017-06-15T12:26:08.484Z,34.2
2017-06-15T12:27:08.290Z,33.5
2017-06-15T12:28:08.019Z,33.5
2017-06-15T12:29:07.246Z,33.5
2017-06-15T12:30:06.980Z,33.7
2017-06-15T12:31:06.610Z,33.1
2017-06-15T12:32:06.224Z,33.4
2017-06-15T12:33:05.958Z,33
2017-06-15T12:34:05.196Z,32.8
2017-06-15T12:35:04.814Z,31.8
2017-06-15T12:36:04.553Z,32.3
2017-06-15T12:37:04.286Z,32.4
2017-06-15T12:38:03.398Z,33
2017-06-15T12:39:03.279Z,32.6
2017-06-15T12:40:02.898Z,33.2
2017-06-15T12:41:02.403Z,32.6
2017-06-15T12:42:02.084Z,34.1
2017-06-15T12:43:01.911Z,33.2
2017-06-15T12:43:32.095Z,33.2
2017-06-15T12:44:02.641Z,33.6
2017-06-15T12:45:00.869Z,32.9
2017-06-15T12:46:00.609Z,32.8
2017-06-15T12:46:59.853Z,32.8
2017-06-15T12:47:59.549Z,32.8
2017-06-15T12:48:59.282Z,33.5
2017-06-15T12:49:59.019Z,33.6
2017-06-15T12:50:58.638Z,33.6
2017-06-15T12:51:57.869Z,33.6
2017-06-15T12:52:58.022Z,33.6
2017-06-15T12:53:57.253Z,33.6
2017-06-15T12:54:56.872Z,32.7
2017-06-15T12:55:56.494Z,33
2017-06-15T12:56:55.723Z,32.9
2017-06-15T12:57:55.456Z,32.8
2017-06-15T12:58:55.198Z,33.5
2017-06-15T12:59:54.544Z,33.5
2017-06-15T13:00:54.162Z,33.5
2017-06-15T13:01:53.895Z,33.8
2017-06-15T13:02:53.516Z,34.5
2017-06-15T13:03:53.825Z,35.1
2017-06-15T13:04:52.570Z,34.7
2017-06-15T13:05:52.386Z,34.7
2017-06-15T13:06:52.122Z,34.3
2017-06-15T13:07:51.363Z,34
2017-06-15T13:08:51.100Z,33.6
2017-06-15T13:09:50.730Z,32.9
2017-06-15T13:10:50.464Z,33.3
2017-06-15T13:11:49.703Z,33.6
2017-06-15T13:12:49.436Z,34.7
2017-06-15T13:13:49.168Z,34.1
2017-06-15T13:14:48.900Z,33.9
2017-06-15T13:15:48.135Z,33.7
2017-06-15T13:16:47.749Z,33.5
2017-06-15T13:17:47.249Z,33.3
2017-06-15T13:18:47.375Z,33.5
2017-06-15T13:19:46.875Z,33.8
2017-06-15T13:20:46.488Z,33.8
2017-06-15T13:21:45.716Z,33.6
2017-06-15T13:22:45.452Z,32.7
2017-06-15T13:23:45.186Z,32.7
2017-06-15T13:25:44.889Z,32.6
2017-06-15T13:26:44.122Z,32.4
2017-06-15T13:27:43.352Z,33.3
2017-06-15T13:28:43.176Z,33.5
2017-06-15T13:29:42.914Z,32.9
2017-06-15T13:30:42.149Z,33.1
2017-06-15T13:31:41.887Z,33.3
2017-06-15T13:32:41.627Z,33.1
2017-06-15T13:33:41.366Z,33.1
2017-06-15T13:34:40.613Z,33.2
2017-06-15T13:35:40.235Z,32.1
2017-06-15T13:36:39.971Z,31.7
2017-06-15T13:37:39.657Z,30.8
2017-06-15T13:38:39.390Z,31.3
2017-06-15T13:39:38.619Z,30.7
2017-06-15T13:40:38.355Z,30.6
2017-06-15T13:41:38.091Z,30.9
2017-06-15T13:42:37.715Z,30.9
2017-06-15T13:43:37.022Z,30.8
2017-06-15T13:44:36.763Z,31
2017-06-15T13:46:35.889Z,31.1
2017-06-15T13:47:35.504Z,31.5
2017-06-15T13:48:35.124Z,31.8
2017-06-15T13:50:34.526Z,31.2